Meteorología y climatología de Navarra
Datos de la estación - Meteo Navarra

Estación de Eltzaburu GN

Altitud 588 m.


Datos desde el 10/10/2019 hasta el 11/10/2019 en horario solar
Los datos son PROVISIONALES

Anterior Página 1 de 1 Siguiente Descargar: Formato para Excel 2000 o superior   Formato csv   Formato para OpenOffice Calc
Fecha Temperatura Humedad relativa Radiación global Insolación Precipitación Vel. viento 10 m Vel. viento 10 m Dir. viento 10 m
ºC % W/m² s l/m² m/s km/h º
10/10/2019 0:00 7.9 98 0.0 0 0.0 0.6 2.2 293
10/10/2019 0:10 8.0 97 0.0 0 0.0 0.7 2.6 328
10/10/2019 0:20 8.0 97 0.0 0 0.0 0.8 2.8 341
10/10/2019 0:30 8.1 97 0.0 0 0.0 0.8 2.9 342
10/10/2019 0:40 8.2 96 0.0 0 0.0 0.8 3.0 261
10/10/2019 0:50 7.6 96 0.0 0 0.0 0.6 2.2 326
10/10/2019 1:00 7.8 97 0.0 0 0.0 0.4 1.6 343
10/10/2019 1:10 7.9 97 0.0 0 0.0 0.4 1.6 71
10/10/2019 1:20 7.9 97 0.0 0 0.0 0.4 1.4 199
10/10/2019 1:30 7.8 97 0.0 0 0.0 0.6 2.1 15
10/10/2019 1:40 8.0 97 0.0 0 0.0 0.4 1.4 341
10/10/2019 1:50 7.8 97 0.0 0 0.0 0.3 1.0 345
10/10/2019 2:00 7.7 97 0.0 0 0.0 0.2 0.7 263
10/10/2019 2:10 7.3 97 0.0 0 0.0 0.0 0.1 204
10/10/2019 2:20 6.9 97 0.0 0 0.0 0.4 1.3 106
10/10/2019 2:30 6.8 97 0.0 0 0.0 0.2 0.9 245
10/10/2019 2:40 6.6 97 0.0 0 0.0 0.7 2.4 327
10/10/2019 2:50 6.6 98 0.0 0 0.0 0.6 2.1 353
10/10/2019 3:00 6.7 98 0.0 0 0.0 0.4 1.3 353
10/10/2019 3:10 6.2 97 0.0 0 0.0 0.4 1.5 310
10/10/2019 3:20 5.8 97 0.0 0 0.0 0.7 2.5 297
10/10/2019 3:30 5.7 98 0.0 0 0.0 0.8 3.0 328
10/10/2019 3:40 6.1 99 0.0 0 0.0 0.5 1.6 359
10/10/2019 3:50 6.3 98 0.0 0 0.0 0.2 0.7 18
10/10/2019 4:00 5.8 98 0.0 0 0.0 0.1 0.2 267
10/10/2019 4:10 5.7 98 0.0 0 0.0 0.1 0.4 150
10/10/2019 4:20 5.3 98 0.0 0 0.0 0.2 0.6 345
10/10/2019 4:30 5.2 98 0.0 0 0.0 1.0 3.5 322
10/10/2019 4:40 5.4 98 0.0 0 0.0 0.5 1.7 326
10/10/2019 4:50 5.0 98 0.0 0 0.0 0.2 0.7 292
10/10/2019 5:00 4.8 98 0.0 0 0.0 0.4 1.6 315
10/10/2019 5:10 4.7 98 0.0 0 0.0 0.6 2.1 354
10/10/2019 5:20 4.7 98 0.0 0 0.0 0.1 0.3 339
10/10/2019 5:30 4.6 98 0.0 0 0.0 0.0 0.0 0
10/10/2019 5:40 4.4 98 0.0 0 0.0 0.0 0.0 0
10/10/2019 5:50 4.1 98 0.0 0 0.0 0.1 0.3 105
10/10/2019 6:00 4.1 98 0.0 0 0.0 0.3 1.2 18
10/10/2019 6:10 4.3 98 0.0 0 0.0 0.2 0.6 322
10/10/2019 6:20 4.3 99 0.0 0 0.0 0.5 1.8 323
10/10/2019 6:30 4.3 98 0.0 0 0.0 0.3 0.9 308
10/10/2019 6:40 3.7 98 8.4 0 0.0 0.1 0.3 293
10/10/2019 6:50 3.9 99 23.0 0 0.0 0.0 0.0 0
10/10/2019 7:00 4.1 99 32.1 0 0.0 0.5 1.8 307
10/10/2019 7:10 4.1 99 32.7 0 0.0 0.4 1.3 316
10/10/2019 7:20 4.3 99 38.6 0 0.0 0.5 1.9 347
10/10/2019 7:30 4.9 99 45.4 0 0.0 0.9 3.2 336
10/10/2019 7:40 5.4 99 53.5 0 0.0 1.3 4.6 331
10/10/2019 7:50 6.1 99 114.0 168 0.1 0.8 2.8 314
10/10/2019 8:00 6.9 99 207.2 430 0.0 0.6 2.1 228
10/10/2019 8:10 7.8 99 295.2 600 0.0 0.9 3.3 186
10/10/2019 8:20 8.3 96 325.3 600 0.0 0.8 2.8 179
10/10/2019 8:30 9.4 95 351.7 600 0.0 0.6 2.3 223
10/10/2019 8:40 10.0 90 378.5 600 0.0 0.6 2.2 193
10/10/2019 8:50 10.9 86 406.2 600 0.0 0.5 1.8 164
10/10/2019 9:00 11.5 84 433.9 600 0.0 0.7 2.5 188
10/10/2019 9:10 12.2 80 459.4 600 0.0 1.3 4.6 284
10/10/2019 9:20 13.3 74 487.5 600 0.0 2.3 8.4 346
10/10/2019 9:30 13.8 70 510.8 600 0.0 2.7 9.7 344
10/10/2019 9:40 14.1 68 533.1 600 0.0 2.9 10.5 337
10/10/2019 9:50 14.2 67 553.7 600 0.0 3.2 11.5 341
10/10/2019 10:00 14.6 65 573.3 600 0.0 2.9 10.3 342
10/10/2019 10:10 14.8 65 591.5 600 0.0 2.9 10.5 340
10/10/2019 10:20 15.1 64 608.2 600 0.0 2.6 9.4 335
10/10/2019 10:30 15.6 62 626.6 600 0.0 2.0 7.1 333
10/10/2019 10:40 15.9 61 638.8 600 0.0 1.6 5.9 343
10/10/2019 10:50 16.1 60 648.6 600 0.0 2.1 7.4 330
10/10/2019 11:00 16.2 60 659.4 600 0.0 1.2 4.3 325
10/10/2019 11:10 16.7 59 670.6 600 0.0 2.2 7.7 352
10/10/2019 11:20 16.6 58 678.1 600 0.0 2.5 8.8 317
10/10/2019 11:30 16.6 58 687.2 600 0.0 1.8 6.3 330
10/10/2019 11:40 17.2 57 689.4 600 0.0 2.1 7.5 325
10/10/2019 11:50 17.3 57 693.2 600 0.0 2.0 7.2 336
10/10/2019 12:00 17.6 57 693.5 600 0.0 1.5 5.5 340
10/10/2019 12:10 17.6 56 693.2 600 0.0 2.5 9.1 346
10/10/2019 12:20 17.6 56 691.6 600 0.0 3.3 11.7 324
10/10/2019 12:30 17.5 56 687.7 600 0.0 3.6 12.9 342
10/10/2019 12:40 17.6 56 682.2 600 0.0 3.4 12.2 335
10/10/2019 12:50 17.5 56 674.5 600 0.0 3.8 13.5 336
10/10/2019 13:00 17.7 55 665.4 600 0.0 3.5 12.7 333
10/10/2019 13:10 17.8 55 655.7 600 0.0 2.7 9.8 330
10/10/2019 13:20 17.9 54 642.8 600 0.0 3.1 11.3 323
10/10/2019 13:30 17.9 54 630.0 600 0.0 3.3 11.9 336
10/10/2019 13:40 17.9 53 614.8 600 0.0 3.1 11.2 335
10/10/2019 13:50 18.2 52 596.8 600 0.0 3.2 11.5 341
10/10/2019 14:00 18.2 53 579.7 600 0.0 3.3 11.7 342
10/10/2019 14:10 18.4 52 560.6 600 0.0 2.5 8.9 327
10/10/2019 14:20 18.4 52 536.3 600 0.0 3.0 10.7 332
10/10/2019 14:30 18.5 53 511.4 600 0.0 2.5 9.1 340
10/10/2019 14:40 18.6 52 484.7 600 0.0 2.2 7.9 10
10/10/2019 14:50 18.7 52 457.2 600 0.0 2.1 7.6 360
10/10/2019 15:00 18.6 54 430.6 600 0.0 2.2 8.0 348
10/10/2019 15:10 18.6 53 402.2 600 0.0 2.3 8.3 359
10/10/2019 15:20 18.5 55 372.1 600 0.0 2.6 9.3 347
10/10/2019 15:30 18.3 57 344.1 600 0.0 1.9 6.8 349
10/10/2019 15:40 18.4 58 312.9 600 0.0 1.6 5.9 0
10/10/2019 15:50 18.5 58 281.5 600 0.0 1.2 4.2 11
10/10/2019 16:00 18.5 58 250.4 600 0.0 1.6 5.7 21
10/10/2019 16:10 18.0 60 218.8 600 0.0 2.3 8.1 3
10/10/2019 16:20 17.6 63 187.9 600 0.0 2.0 7.2 352
10/10/2019 16:30 17.2 65 156.7 600 0.0 2.1 7.4 352
10/10/2019 16:40 16.7 68 126.1 600 0.0 2.0 7.1 340
10/10/2019 16:50 16.5 69 96.0 600 0.0 1.8 6.3 349
10/10/2019 17:00 16.0 71 67.7 600 0.0 1.8 6.4 346
10/10/2019 17:10 15.6 73 41.8 600 0.0 1.7 5.9 340
10/10/2019 17:20 15.0 76 18.0 0 0.0 1.5 5.5 349
10/10/2019 17:30 14.7 76 0.0 0 0.0 1.7 6.2 357
10/10/2019 17:40 14.1 79 0.0 0 0.0 0.6 2.3 316
10/10/2019 17:50 13.1 84 0.0 0 0.0 1.0 3.7 231
10/10/2019 18:00 12.9 86 0.0 0 0.0 1.1 3.9 261
10/10/2019 18:10 12.6 87 0.0 0 0.0 0.9 3.3 319
10/10/2019 18:20 12.4 88 0.0 0 0.0 1.7 6.0 328
10/10/2019 18:30 12.5 88 0.0 0 0.0 1.5 5.2 331
10/10/2019 18:40 12.1 89 0.0 0 0.0 0.9 3.1 302
10/10/2019 18:50 11.7 91 0.0 0 0.0 1.3 4.6 333
10/10/2019 19:00 11.7 91 0.0 0 0.0 0.5 1.9 327
10/10/2019 19:10 11.2 92 0.0 0 0.0 0.2 0.6 321
10/10/2019 19:20 10.8 94 0.0 0 0.0 0.6 2.0 329
10/10/2019 19:30 10.6 95 0.0 0 0.0 0.4 1.5 290
10/10/2019 19:40 10.5 95 0.0 0 0.0 1.0 3.4 329
10/10/2019 19:50 10.6 95 0.0 0 0.0 1.2 4.4 339
10/10/2019 20:00 10.9 94 0.0 0 0.0 0.7 2.7 325
10/10/2019 20:10 10.6 92 0.0 0 0.0 0.2 0.6 159
10/10/2019 20:20 9.8 95 0.0 0 0.0 0.4 1.3 151
10/10/2019 20:30 9.7 96 0.0 0 0.0 0.5 1.6 135
10/10/2019 20:40 9.4 96 0.0 0 0.0 0.0 0.0 105
10/10/2019 20:50 9.3 97 0.0 0 0.0 0.6 2.0 332
10/10/2019 21:00 9.5 97 0.0 0 0.0 0.3 1.0 179
10/10/2019 21:10 8.8 96 0.0 0 0.0 0.0 0.0 134
10/10/2019 21:20 8.8 97 0.0 0 0.0 0.0 0.0 134
10/10/2019 21:30 8.7 97 0.0 0 0.0 0.1 0.4 143
10/10/2019 21:40 8.9 98 0.0 0 0.0 0.1 0.5 159
10/10/2019 21:50 8.5 97 0.0 0 0.0 0.0 0.0 0
10/10/2019 22:00 8.4 98 0.0 0 0.0 0.0 0.0 0
10/10/2019 22:10 8.2 97 0.0 0 0.0 0.0 0.0 246
10/10/2019 22:20 8.2 98 0.0 0 0.0 0.0 0.1 246
10/10/2019 22:30 8.3 98 0.0 0 0.0 0.2 0.6 148
10/10/2019 22:40 8.1 98 0.0 0 0.0 0.1 0.4 123
10/10/2019 22:50 7.7 97 0.0 0 0.0 0.1 0.4 135
10/10/2019 23:00 7.7 98 0.0 0 0.0 0.4 1.3 26
10/10/2019 23:10 7.9 98 0.0 0 0.0 0.2 0.8 341
10/10/2019 23:20 8.0 98 0.0 0 0.0 0.3 1.1 161
10/10/2019 23:30 8.0 98 0.0 0 0.0 0.5 1.8 151
10/10/2019 23:40 8.0 98 0.0 0 0.0 0.2 0.8 108
10/10/2019 23:50 7.8 98 0.0 0 0.0 0.2 0.8 22
Anterior Página 1 de 1 Siguiente

NOTA: Tipo de datos según el color:
   - Valores diarios o 10 minutos correctos
   - Valores diarios calculados a partir de un número de datos 10 minutos menor que 144 y mayor que 120, o de un número de datos semihorarios menor que 48 y mayor que 40 (caso de las estaciones de Riegos de Navarra y del MARM)
   - Valores diez minutos estimados


Contacto        Enlaces        Aviso legal